FWKI

Lilongwe International Airport

Lilongwe, Malawi
METAR FWKI 201200Z 23006KT 9999 FEW032CB BKN035 27/15 Q1015 NOSIG
Observed Flight Rules
Jan-20 @ 12:00 UTC (an hour ago) Visual Flight Rules
Wind Visibility Clouds
230° at 6 knots 10,000+ meters
  • Few at 3,200' AGL
  • Broken at 3,500' AGL
Temperatures Readings
Current 27°C / 81°F
Dewpoint 15°C / 59°F
Humidity 48%
Altimeter 29.97" Hg
Pressure 1015 hPa
Elevation 1229
METAR FWKI 201200Z 23006KT 9999 FEW032CB BKN035 27/15 Q1015 NOSIG
Observed Flight Rules
Jan-20 @ 12:00 UTC
(an hour ago)
VFR
Wind Visibility
230° at 6 knots 10,000+ meters
Clouds
  • Few at 3,200' AGL
  • Broken at 3,500' AGL
Temperature Dewpoint
27°C / 81°F 15°C / 59°F
Humidity Altimeter Pressure
48% 29.97" Hg 1015 hPa